KMUO

Mountain Home AFB Airport

Mountain Home, Idaho, USA
METAR KMUO 171428Z AUTO 10009KT 10SM -RA OVC038 03/03 A3004 RMK AO2 SLP183 $
Observed Flight Rules
Dec-17 @ 14:28 UTC (20 minutes ago) Visual Flight Rules
Wind Visibility Clouds Conditions
100° at 9 knots 10 miles
  • Overcast at 3,800' AGL
  • Light Rain
Temperatures Readings
Current 3°C / 37°F
Dewpoint 3°C / 37°F
Humidity 100%
Altimeter 30.04" Hg
Pressure 1018.3 hPa
Elevation 913
METAR KMUO 171428Z AUTO 10009KT 10SM -RA OVC038 03/03 A3004 RMK AO2 SLP183 $
Observed Flight Rules
Dec-17 @ 14:28 UTC
(20 minutes ago)
VFR
Wind Visibility
100° at 9 knots 10 miles
Clouds
  • Overcast at 3,800' AGL
Conditions
  • Light Rain
Temperature Dewpoint
3°C / 37°F 3°C / 37°F
Humidity Altimeter Pressure
100% 30.04" Hg 1018.3 hPa